Circle R (354) Station Data

Red Flag Warning: No
Fire Weather Zone: 250
SDGE Region: North East
Lat/Lon: 33.286/-117.146

Observations

Time Wind Speed/Gust Temp(F) RH Fuel Moist Fuel Temp(F) Dewpt(F) Tmax(F) Tmin(F) Accum Precip 10-min Precip SL Press(mb)
4/29 11:50pm 41 5 G 7 62° 23% - - 24° 83.9° 51.8° - - -
4/29 11:40pm 38 2 G 4 62° 24% - - 24° 83.9° 51.8° - - -
4/29 11:30pm 279 1 G 2 61° 24% - - 24° 83.9° 51.8° - - -
4/29 11:20pm 312 1 G 5 62° 24% - - 24° 83.9° 51.8° - - -
4/29 11:10pm 19 5 G 7 63° 23% - - 24° 83.9° 51.8° - - -
4/29 11:00pm 30 6 G 7 62° 23% - - 24° 83.9° 51.8° - - -
4/29 10:50pm 30 5 G 7 62° 24% - - 25° 83.9° 51.8° - - -
4/29 10:40pm 26 5 G 6 62° 23% - - 24° 83.9° 51.8° - - -
4/29 10:30pm 27 4 G 6 62° 23% - - 24° 83.9° 51.8° - - -
4/29 10:20pm 35 5 G 6 63° 22% - - 23° 83.9° 51.8° - - -
4/29 10:10pm 45 4 G 7 63° 22% - - 24° 83.9° 51.8° - - -
4/29 10:00pm 48 5 G 8 63° 23% - - 24° 83.9° 51.8° - - -
4/29 9:50pm 49 5 G 7 63° 23% - - 24° 83.9° 51.8° - - -
4/29 9:40pm 45 4 G 6 64° 22% - - 24° 83.9° 51.8° - - -
4/29 9:30pm 53 2 G 4 64° 22% - - 25° 83.9° 51.8° - - -
4/29 9:20pm 145 1 G 3 64° 23% - - 25° 83.9° 51.8° - - -
4/29 9:10pm 148 0 G 2 64° 22% - - 25° 83.9° 51.8° - - -
4/29 9:00pm 115 1 G 2 65° 22% - - 25° 83.9° 51.8° - - -
4/29 8:50pm 89 0 G 2 65° 22% - - 25° 83.9° 51.8° - - -
4/29 8:40pm 59 1 G 3 66° 22% - - 26° 83.9° 51.8° - - -
4/29 8:30pm 193 1 G 4 66° 22% - - 26° 83.9° 51.8° - - -
4/29 8:20pm 268 1 G 4 67° 21% - - 26° 83.9° 51.8° - - -
4/29 8:10pm 39 1 G 2 67° 21% - - 26° 83.9° 51.8° - - -
4/29 8:00pm 84 0 G 1 67° 21% - - 26° 83.9° 51.8° - - -
4/29 7:50pm 115 1 G 3 67° 21% - - 26° 83.9° 51.8° - - -
4/29 7:40pm 71 1 G 3 68° 21% - - 27° 83.9° 51.8° - - -
4/29 7:30pm 181 2 G 3 69° 20% - - 27° 83.9° 51.8° - - -
4/29 7:20pm 183 2 G 4 69° 21% - - 27° 83.9° 51.8° - - -
4/29 7:10pm 194 2 G 4 70° 20% - - 27° 83.9° 51.8° - - -
4/29 7:00pm 197 3 G 5 71° 20% - - 28° 83.9° 51.8° - - -
4/29 6:50pm 225 4 G 6 72° 20% - - 29° 83.9° 51.8° - - -
4/29 6:40pm 240 5 G 8 73° 19% - - 28° 83.9° 51.8° - - -
4/29 6:30pm 228 5 G 9 73° 17% - - 26° 83.9° 51.8° - - -
4/29 6:20pm 232 6 G 11 74° 16% - - 25° 83.9° 51.8° - - -
4/29 6:10pm 237 6 G 12 74° 16% - - 25° 83.9° 51.8° - - -
4/29 6:00pm 224 7 G 11 74° 16% - - 25° 83.9° 51.8° - - -
4/29 5:50pm 221 7 G 12 75° 15% - - 24° 83.9° 51.8° - - -
4/29 5:40pm 233 6 G 14 76° 14% - - 22° 83.9° 51.8° - - -
4/29 5:30pm 232 8 G 12 76° 13% - - 21° 83.9° 51.8° - - -
4/29 5:20pm 230 7 G 11 76° 12% - - 21° 83.9° 51.8° - - -
4/29 5:10pm 250 8 G 16 76° 12% - - 20° 83.9° 51.8° - - -
4/29 5:00pm 224 8 G 13 77° 12% - - 20° 83.9° 51.8° - - -
4/29 4:50pm 231 8 G 12 77° 12% - - 20° 83.9° 51.8° - - -
4/29 4:40pm 233 8 G 13 77° 11% - - 19° 83.9° 51.8° - - -
4/29 4:30pm 237 10 G 16 77° 11% - - 19° 83.9° 51.8° - - -
4/29 4:20pm 244 10 G 17 77° 11% - - 18° 83.9° 51.8° - - -
4/29 4:10pm 235 10 G 17 77° 11% - - 20° 83.9° 51.8° - - -
4/29 4:00pm 241 12 G 18 77° 11% - - 18° 83.9° 51.8° - - -
4/29 3:50pm 230 10 G 20 78° 12% - - 20° 83.9° 51.8° - - -
4/29 3:40pm 240 11 G 19 77° 11% - - 19° 83.9° 51.8° - - -
4/29 3:30pm 236 11 G 17 78° 10% - - 17° 83.9° 51.8° - - -
4/29 3:20pm 234 11 G 17 79° 10% - - 18° 83.9° 51.8° - - -
4/29 3:10pm 239 10 G 17 79° 10% - - 18° 83.9° 51.8° - - -
4/29 3:00pm 239 10 G 17 80° 9% - - 17° 83.9° 51.8° - - -
4/29 2:50pm 239 10 G 16 80° 10% - - 17° 83.9° 51.8° - - -
4/29 2:40pm 245 11 G 17 80° 10% - - 19° 83.9° 51.8° - - -
4/29 2:30pm 235 9 G 18 80° 11% - - 20° 83.9° 51.8° - - -
4/29 2:20pm 238 10 G 18 81° 10% - - 19° 83.9° 51.8° - - -
4/29 2:10pm 232 9 G 15 81° 10% - - 20° 83.9° 51.8° - - -
4/29 2:00pm 243 9 G 15 81° 10% - - 20° 83.9° 51.8° - - -
4/29 1:50pm 253 8 G 14 81° 10% - - 20° 83.9° 51.8° - - -
4/29 1:40pm 258 8 G 14 80° 11% - - 21° 83.9° 51.8° - - -
4/29 1:30pm 244 9 G 16 81° 10% - - 20° 83.9° 51.8° - - -
4/29 1:20pm 275 7 G 14 82° 8% - - 15° 83.9° 51.8° - - -
4/29 1:10pm 299 5 G 11 83° 6% - - 83.9° 51.8° - - -
4/29 1:00pm 24 4 G 14 82° 6% - - 83.9° 51.8° - - -
4/29 12:50pm 273 4 G 10 82° 6% - - 82.8° 51.8° - - -
4/29 12:40pm 239 4 G 10 82° 6% - - 82.2° 51.8° - - -
4/29 12:30pm 294 5 G 10 81° 6% - - 82.2° 51.8° - - -
4/29 12:20pm 270 5 G 10 80° 7% - - 80.7° 51.8° - - -
4/29 12:10pm 302 4 G 7 80° 7% - - 80.7° 51.8° - - -
4/29 12:00pm 345 5 G 12 80° 7% - - 10° 80.7° 51.8° - - -
4/29 11:50am 31 4 G 8 79° 7% - - 10° 80.2° 51.8° - - -
4/29 11:40am 352 6 G 11 79° 7% - - 10° 79.6° 51.8° - - -
4/29 11:30am 319 4 G 9 78° 7% - - 10° 79.3° 51.8° - - -
4/29 11:20am 25 6 G 12 77° 8% - - 10° 79.3° 51.8° - - -
4/29 11:10am 345 7 G 14 78° 8% - - 10° 79.3° 51.8° - - -
4/29 11:00am 357 5 G 10 78° 8% - - 12° 79.3° 51.8° - - -
4/29 10:50am 356 6 G 15 78° 8% - - 12° 78.5° 51.8° - - -
4/29 10:40am 2 5 G 10 78° 8% - - 12° 78.5° 51.8° - - -
4/29 10:30am 356 6 G 12 76° 8% - - 11° 77.1° 51.8° - - -
4/29 10:20am 9 7 G 13 76° 9% - - 12° 76.6° 51.8° - - -
4/29 10:10am 25 7 G 13 76° 9% - - 13° 76.3° 51.8° - - -
4/29 10:00am 12 8 G 17 75° 9% - - 13° 76.2° 51.8° - - -
4/29 9:50am 4 6 G 11 75° 10% - - 14° 75.9° 51.8° - - -
4/29 9:40am 11 9 G 17 74° 10% - - 14° 74.5° 51.8° - - -
4/29 9:30am 359 10 G 17 73° 10% - - 13° 73.9° 51.8° - - -
4/29 9:20am 7 11 G 19 73° 10% - - 13° 73° 51.8° - - -
4/29 9:10am 3 9 G 15 72° 10% - - 13° 72.7° 51.8° - - -
4/29 9:00am 1 8 G 14 72° 11% - - 14° 72.6° 51.8° - - -
4/29 8:50am 354 7 G 13 72° 11% - - 14° 72.3° 51.8° - - -
4/29 8:40am 0 8 G 15 71° 11% - - 14° 71.3° 51.8° - - -
4/29 8:30am 14 3 G 11 70° 11% - - 14° 70.9° 51.8° - - -
4/29 8:20am 156 2 G 6 69° 12% - - 14° 69.9° 51.8° - - -
4/29 8:10am 156 3 G 7 68° 13% - - 14° 68.7° 51.8° - - -
4/29 8:00am 147 5 G 8 67° 14% - - 16° 68° 51.8° - - -
4/29 7:50am 356 6 G 14 67° 12% - - 12° 67.6° 51.8° - - -
4/29 7:40am 8 8 G 16 66° 12% - - 12° 66.5° 51.8° - - -
4/29 7:30am 3 4 G 11 66° 12% - - 12° 66.4° 51.8° - - -
4/29 7:20am 5 4 G 11 65° 13% - - 13° 65.8° 51.8° - - -
4/29 7:10am 52 3 G 8 65° 14% - - 14° 65.8° 51.8° - - -
4/29 7:00am 1 8 G 17 65° 12% - - 11° 65.7° 51.8° - - -
4/29 6:50am 2 10 G 18 64° 12% - - 11° 65.2° 51.8° - - -
4/29 6:40am 357 7 G 14 63° 13% - - 11° 64.6° 51.8° - - -
4/29 6:30am 347 6 G 13 63° 13% - - 11° 64.6° 51.8° - - -
4/29 6:20am 358 8 G 14 62° 13% - - 11° 64.6° 51.8° - - -
4/29 6:10am 355 7 G 14 62° 13% - - 11° 64.6° 51.8° - - -
4/29 6:00am 350 5 G 9 63° 13% - - 11° 64.6° 51.8° - - -
4/29 5:50am 360 5 G 9 64° 12% - - 10° 64.6° 51.8° - - -
4/29 5:40am 3 5 G 9 63° 13% - - 11° 64.5° 51.8° - - -
4/29 5:30am 360 2 G 8 59° 19% - - 16° 64° 51.8° - - -
4/29 5:20am 104 1 G 4 54° 38% - - 29° 64° 51.8° - - -
4/29 5:10am 221 1 G 3 55° 34% - - 27° 64° 51.8° - - -
4/29 5:00am 205 1 G 3 57° 31% - - 27° 64° 51.8° - - -
4/29 4:50am 269 1 G 4 62° 17% - - 16° 64° 51.8° - - -
4/29 4:40am 344 3 G 6 62° 16% - - 15° 63.5° 51.8° - - -
4/29 4:30am 352 2 G 7 56° 37% - - 28° 61.5° 51.8° - - -
4/29 4:20am 334 3 G 8 59° 26% - - 23° 61.5° 51.8° - - -
4/29 4:10am 65 1 G 5 55° 41% - - 31° 61.3° 51.8° - - -
4/29 4:00am 222 1 G 3 52° 55% - - 37° 61.3° 51.8° - - -
4/29 3:50am 210 2 G 7 57° 42% - - 34° 61.3° 53.3° - - -
4/29 3:40am 41 2 G 8 58° 34% - - 28° 61.1° 53.3° - - -
4/29 3:30am 71 1 G 3 54° 53% - - 37° 58.5° 53.3° - - -
4/29 3:20am 217 1 G 2 54° 53% - - 37° 58.5° 53.3° - - -
4/29 3:10am 80 0 G 1 54° 53% - - 37° 58.5° 53.3° - - -
4/29 3:00am 62 1 G 3 54° 53% - - 37° 58.5° 53.3° - - -
4/29 2:50am 233 2 G 3 54° 52% - - 37° 58.5° 53.5° - - -
4/29 2:40am 242 2 G 4 55° 51% - - 37° 58.5° 53.9° - - -
4/29 2:30am 229 2 G 4 55° 51% - - 37° 58.5° 53.9° - - -
4/29 2:20am 11 4 G 5 58° 41% - - 34° 58.5° 54.3° - - -
4/29 2:10am 21 5 G 6 56° 49% - - 37° 58.5° 54.3° - - -
4/29 2:00am 9 0 G 1 55° 56% - - 39° 58.5° 54.4° - - -
4/29 1:50am 169 1 G 3 56° 52% - - 39° 58.5° 54.4° - - -
4/29 1:40am 22 2 G 4 56° 52% - - 39° 58.5° 54.4° - - -
4/29 1:30am 307 1 G 2 55° 58% - - 40° 58.5° 54.4° - - -
4/29 1:20am 173 1 G 3 55° 57% - - 41° 58.5° 55° - - -
4/29 1:10am 27 1 G 2 56° 56% - - 40° 58.5° 55.2° - - -
4/29 1:00am 274 1 G 2 56° 56% - - 40° 58.5° 55.3° - - -
4/29 12:50am 248 2 G 2 56° 56% - - 40° 58.5° 55.3° - - -
4/29 12:40am 187 1 G 2 57° 52% - - 40° 58.5° 56.3° - - -
4/29 12:30am 351 1 G 3 58° 51% - - 40° 58.5° 56.6° - - -
4/29 12:20am 281 1 G 2 57° 53% - - 40° 57.9° 56.6° - - -
4/29 12:10am 268 1 G 2 58° 51% - - 40° 57.9° 57.3° - - -
4/29 12:00am 273 2 G 4 58° 51% - - 40° 75.7° 51° - - -
4/28 11:50pm 16 2 G 4 58° 50% - - 40° 75.7° 51° - - -
4/28 11:40pm 18 3 G 7 58° 51% - - 40° 75.7° 51° - - -
4/28 11:30pm 26 2 G 5 58° 52% - - 41° 75.7° 51° - - -
4/28 11:20pm 9 3 G 6 59° 51% - - 41° 75.7° 51° - - -
4/28 11:10pm 309 2 G 6 59° 51% - - 41° 75.7° 51° - - -
4/28 11:00pm 86 1 G 3 61° 46% - - 40° 75.7° 51° - - -
4/28 10:50pm 344 2 G 4 61° 47% - - 41° 75.7° 51° - - -
4/28 10:40pm 312 3 G 4 60° 49% - - 41° 75.7° 51° - - -
4/28 10:30pm 295 2 G 4 60° 50% - - 41° 75.7° 51° - - -
4/28 10:20pm 244 1 G 3 60° 48% - - 41° 75.7° 51° - - -
4/28 10:10pm 287 1 G 4 61° 46% - - 40° 75.7° 51° - - -
4/28 10:00pm 39 3 G 5 62° 44% - - 40° 75.7° 51° - - -
4/28 9:50pm 34 5 G 6 62° 45% - - 40° 75.7° 51° - - -
4/28 9:40pm 52 5 G 6 62° 44% - - 40° 75.7° 51° - - -
4/28 9:30pm 51 5 G 6 62° 45% - - 41° 75.7° 51° - - -
4/28 9:20pm 38 5 G 6 62° 47% - - 41° 75.7° 51° - - -
4/28 9:10pm 28 3 G 5 62° 48% - - 42° 75.7° 51° - - -
4/28 9:00pm 44 2 G 4 62° 47% - - 42° 75.7° 51° - - -
4/28 8:50pm 111 1 G 3 62° 48% - - 42° 75.7° 51° - - -
4/28 8:40pm 159 1 G 3 63° 46% - - 42° 75.7° 51° - - -
4/28 8:30pm 195 2 G 4 63° 46% - - 42° 75.7° 51° - - -
4/28 8:20pm 159 2 G 5 63° 45% - - 42° 75.7° 51° - - -
4/28 8:10pm 190 3 G 6 64° 44% - - 42° 75.7° 51° - - -
4/28 8:00pm 168 3 G 5 64° 43% - - 41° 75.7° 51° - - -
4/28 7:50pm 144 1 G 3 64° 42% - - 41° 75.7° 51° - - -
4/28 7:40pm 85 2 G 3 65° 42% - - 41° 75.7° 51° - - -
4/28 7:30pm 125 0 G 2 65° 42% - - 41° 75.7° 51° - - -
4/28 7:20pm 173 2 G 4 65° 41% - - 41° 75.7° 51° - - -
4/28 7:10pm 187 3 G 6 66° 40% - - 41° 75.7° 51° - - -
4/28 7:00pm 192 5 G 8 66° 39% - - 41° 75.7° 51° - - -
4/28 6:50pm 187 4 G 7 67° 38% - - 40° 75.7° 51° - - -
4/28 6:40pm 183 4 G 7 67° 36% - - 39° 75.7° 51° - - -
4/28 6:30pm 239 5 G 10 67° 36% - - 39° 75.7° 51° - - -
4/28 6:20pm 224 5 G 11 68° 35% - - 39° 75.7° 51° - - -
4/28 6:10pm 223 5 G 9 68° 34% - - 39° 75.7° 51° - - -
4/28 6:00pm 219 6 G 11 69° 33% - - 38° 75.7° 51° - - -